sensor_id;sensor_type;location;lat;lon;timestamp;P1;durP1;ratioP1;P2;durP2;ratioP2
50779;SDS011;36748;37.428;-121.972;2023-04-15T00:00:35;5.32;;;1.52;;
50779;SDS011;36748;37.428;-121.972;2023-04-15T00:03:01;7.57;;;1.85;;
50779;SDS011;36748;37.428;-121.972;2023-04-15T00:05:29;5.07;;;1.60;;
50779;SDS011;36748;37.428;-121.972;2023-04-15T00:07:56;4.18;;;1.42;;
50779;SDS011;36748;37.428;-121.972;2023-04-15T00:10:23;4.70;;;1.35;;
50779;SDS011;36748;37.428;-121.972;2023-04-15T00:12:50;8.40;;;1.88;;
50779;SDS011;36748;37.428;-121.972;2023-04-15T00:15:17;14.40;;;3.53;;
50779;SDS011;36748;37.428;-121.972;2023-04-15T00:17:43;125.55;;;28.83;;
50779;SDS011;36748;37.428;-121.972;2023-04-15T00:20:10;80.80;;;19.30;;
50779;SDS011;36748;37.428;-121.972;2023-04-15T00:22:36;76.32;;;19.40;;
50779;SDS011;36748;37.428;-121.972;2023-04-15T00:25:02;48.70;;;12.45;;
50779;SDS011;36748;37.428;-121.972;2023-04-15T00:27:29;38.03;;;10.43;;
50779;SDS011;36748;37.428;-121.972;2023-04-15T00:29:55;29.90;;;7.90;;
50779;SDS011;36748;37.428;-121.972;2023-04-15T00:32:22;29.35;;;7.38;;
50779;SDS011;36748;37.428;-121.972;2023-04-15T00:34:48;30.42;;;7.05;;
50779;SDS011;36748;37.428;-121.972;2023-04-15T00:37:15;28.77;;;9.52;;
50779;SDS011;36748;37.428;-121.972;2023-04-15T00:39:41;24.00;;;9.98;;
50779;SDS011;36748;37.428;-121.972;2023-04-15T00:42:08;25.55;;;11.93;;
50779;SDS011;36748;37.428;-121.972;2023-04-15T00:44:35;35.90;;;14.20;;
50779;SDS011;36748;37.428;-121.972;2023-04-15T00:47:01;25.88;;;12.55;;
50779;SDS011;36748;37.428;-121.972;2023-04-15T00:49:29;28.13;;;9.40;;
50779;SDS011;36748;37.428;-121.972;2023-04-15T00:51:56;29.27;;;9.38;;
50779;SDS011;36748;37.428;-121.972;2023-04-15T00:54:22;20.55;;;8.52;;
50779;SDS011;36748;37.428;-121.972;2023-04-15T00:56:48;24.95;;;8.18;;
50779;SDS011;36748;37.428;-121.972;2023-04-15T00:59:15;20.73;;;7.22;;
50779;SDS011;36748;37.428;-121.972;2023-04-15T01:01:42;20.58;;;6.55;;
50779;SDS011;36748;37.428;-121.972;2023-04-15T01:04:09;18.02;;;6.35;;
50779;SDS011;36748;37.428;-121.972;2023-04-15T01:06:36;18.25;;;6.15;;
50779;SDS011;36748;37.428;-121.972;2023-04-15T01:09:02;11.25;;;5.22;;
50779;SDS011;36748;37.428;-121.972;2023-04-15T01:11:49;14.07;;;5.85;;
50779;SDS011;36748;37.428;-121.972;2023-04-15T01:14:15;19.20;;;5.18;;
50779;SDS011;36748;37.428;-121.972;2023-04-15T01:17:01;11.65;;;4.75;;
50779;SDS011;36748;37.428;-121.972;2023-04-15T01:19:28;13.23;;;4.90;;
50779;SDS011;36748;37.428;-121.972;2023-04-15T01:21:54;14.30;;;4.65;;
50779;SDS011;36748;37.428;-121.972;2023-04-15T01:24:20;10.00;;;4.35;;
50779;SDS011;36748;37.428;-121.972;2023-04-15T01:26:47;10.70;;;4.03;;
50779;SDS011;36748;37.428;-121.972;2023-04-15T01:29:14;10.55;;;4.25;;
50779;SDS011;36748;37.428;-121.972;2023-04-15T01:31:47;6.82;;;3.65;;
50779;SDS011;36748;37.428;-121.972;2023-04-15T01:36:43;12.13;;;3.85;;
50779;SDS011;36748;37.428;-121.972;2023-04-15T01:39:09;8.32;;;4.05;;
50779;SDS011;36748;37.428;-121.972;2023-04-15T01:41:35;7.05;;;3.10;;
50779;SDS011;36748;37.428;-121.972;2023-04-15T01:44:02;13.90;;;3.97;;
50779;SDS011;36748;37.428;-121.972;2023-04-15T01:46:28;10.00;;;3.50;;
50779;SDS011;36748;37.428;-121.972;2023-04-15T01:48:54;12.45;;;2.97;;
50779;SDS011;36748;37.428;-121.972;2023-04-15T01:51:21;10.93;;;3.00;;
50779;SDS011;36748;37.428;-121.972;2023-04-15T01:53:47;10.68;;;3.08;;
50779;SDS011;36748;37.428;-121.972;2023-04-15T01:56:13;8.57;;;2.63;;
50779;SDS011;36748;37.428;-121.972;2023-04-15T01:58:40;9.10;;;3.22;;
50779;SDS011;36748;37.428;-121.972;2023-04-15T02:01:06;9.85;;;2.65;;
50779;SDS011;36748;37.428;-121.972;2023-04-15T02:03:34;8.65;;;2.42;;
50779;SDS011;36748;37.428;-121.972;2023-04-15T02:06:01;11.50;;;3.30;;
50779;SDS011;36748;37.428;-121.972;2023-04-15T02:08:29;5.95;;;2.72;;
50779;SDS011;36748;37.428;-121.972;2023-04-15T02:10:55;8.05;;;2.53;;
50779;SDS011;36748;37.428;-121.972;2023-04-15T02:13:21;4.88;;;2.58;;
50779;SDS011;36748;37.428;-121.972;2023-04-15T02:15:47;9.82;;;2.45;;
50779;SDS011;36748;37.428;-121.972;2023-04-15T02:18:14;8.95;;;2.47;;
50779;SDS011;36748;37.428;-121.972;2023-04-15T02:20:41;7.05;;;2.20;;
50779;SDS011;36748;37.428;-121.972;2023-04-15T02:23:11;9.45;;;2.25;;
50779;SDS011;36748;37.428;-121.972;2023-04-15T02:25:38;6.20;;;2.10;;
50779;SDS011;36748;37.428;-121.972;2023-04-15T02:28:04;4.10;;;1.85;;
50779;SDS011;36748;37.428;-121.972;2023-04-15T02:30:31;5.60;;;1.80;;
50779;SDS011;36748;37.428;-121.972;2023-04-15T02:32:58;5.07;;;2.13;;
50779;SDS011;36748;37.428;-121.972;2023-04-15T02:35:25;6.22;;;1.70;;
50779;SDS011;36748;37.428;-121.972;2023-04-15T02:37:52;5.50;;;2.22;;
50779;SDS011;36748;37.428;-121.972;2023-04-15T02:40:18;8.88;;;2.45;;
50779;SDS011;36748;37.428;-121.972;2023-04-15T02:42:44;10.73;;;2.45;;
50779;SDS011;36748;37.428;-121.972;2023-04-15T02:45:11;8.45;;;2.58;;
50779;SDS011;36748;37.428;-121.972;2023-04-15T02:47:37;9.30;;;2.45;;
50779;SDS011;36748;37.428;-121.972;2023-04-15T02:50:09;7.68;;;2.10;;
50779;SDS011;36748;37.428;-121.972;2023-04-15T02:52:40;11.68;;;1.85;;
50779;SDS011;36748;37.428;-121.972;2023-04-15T02:55:07;6.35;;;2.00;;
50779;SDS011;36748;37.428;-121.972;2023-04-15T02:57:34;6.25;;;2.15;;
50779;SDS011;36748;37.428;-121.972;2023-04-15T03:00:05;6.82;;;2.13;;
50779;SDS011;36748;37.428;-121.972;2023-04-15T03:02:37;5.32;;;2.13;;
50779;SDS011;36748;37.428;-121.972;2023-04-15T03:05:04;9.32;;;2.20;;
50779;SDS011;36748;37.428;-121.972;2023-04-15T03:07:31;5.32;;;1.88;;
50779;SDS011;36748;37.428;-121.972;2023-04-15T03:09:57;8.18;;;2.30;;
50779;SDS011;36748;37.428;-121.972;2023-04-15T03:12:25;10.15;;;2.55;;
50779;SDS011;36748;37.428;-121.972;2023-04-15T03:14:52;7.70;;;2.22;;
50779;SDS011;36748;37.428;-121.972;2023-04-15T03:17:19;7.60;;;2.20;;
50779;SDS011;36748;37.428;-121.972;2023-04-15T03:19:45;5.63;;;1.98;;
50779;SDS011;36748;37.428;-121.972;2023-04-15T03:22:11;7.93;;;1.92;;
50779;SDS011;36748;37.428;-121.972;2023-04-15T03:24:37;6.85;;;2.22;;
50779;SDS011;36748;37.428;-121.972;2023-04-15T03:27:04;4.55;;;2.03;;
50779;SDS011;36748;37.428;-121.972;2023-04-15T03:29:32;8.18;;;2.40;;
50779;SDS011;36748;37.428;-121.972;2023-04-15T03:31:58;4.95;;;1.77;;
50779;SDS011;36748;37.428;-121.972;2023-04-15T03:34:25;4.82;;;1.77;;
50779;SDS011;36748;37.428;-121.972;2023-04-15T03:36:51;6.38;;;1.67;;
50779;SDS011;36748;37.428;-121.972;2023-04-15T03:39:17;3.05;;;1.55;;
50779;SDS011;36748;37.428;-121.972;2023-04-15T03:41:44;4.03;;;1.90;;
50779;SDS011;36748;37.428;-121.972;2023-04-15T03:44:10;4.82;;;1.70;;
50779;SDS011;36748;37.428;-121.972;2023-04-15T03:46:36;3.70;;;1.70;;
50779;SDS011;36748;37.428;-121.972;2023-04-15T03:49:05;5.85;;;1.80;;
50779;SDS011;36748;37.428;-121.972;2023-04-15T03:51:32;3.90;;;1.73;;
50779;SDS011;36748;37.428;-121.972;2023-04-15T03:53:59;4.95;;;1.98;;
50779;SDS011;36748;37.428;-121.972;2023-04-15T03:56:26;4.05;;;1.50;;
50779;SDS011;36748;37.428;-121.972;2023-04-15T03:58:52;4.72;;;1.55;;
50779;SDS011;36748;37.428;-121.972;2023-04-15T04:01:19;4.40;;;1.92;;
50779;SDS011;36748;37.428;-121.972;2023-04-15T04:03:45;4.53;;;1.80;;
50779;SDS011;36748;37.428;-121.972;2023-04-15T04:06:12;4.93;;;1.50;;
50779;SDS011;36748;37.428;-121.972;2023-04-15T04:08:38;3.20;;;1.67;;
50779;SDS011;36748;37.428;-121.972;2023-04-15T04:11:04;2.75;;;1.25;;
50779;SDS011;36748;37.428;-121.972;2023-04-15T04:13:31;5.78;;;1.70;;
50779;SDS011;36748;37.428;-121.972;2023-04-15T04:15:57;4.47;;;1.83;;
50779;SDS011;36748;37.428;-121.972;2023-04-15T04:18:24;3.83;;;1.90;;
50779;SDS011;36748;37.428;-121.972;2023-04-15T04:20:50;2.25;;;1.30;;
50779;SDS011;36748;37.428;-121.972;2023-04-15T04:23:16;3.88;;;1.60;;
50779;SDS011;36748;37.428;-121.972;2023-04-15T04:25:43;4.20;;;1.50;;
50779;SDS011;36748;37.428;-121.972;2023-04-15T04:28:09;6.82;;;1.70;;
50779;SDS011;36748;37.428;-121.972;2023-04-15T04:30:35;4.68;;;1.60;;
50779;SDS011;36748;37.428;-121.972;2023-04-15T04:33:02;4.95;;;1.55;;
50779;SDS011;36748;37.428;-121.972;2023-04-15T04:35:28;3.92;;;1.60;;
50779;SDS011;36748;37.428;-121.972;2023-04-15T04:37:55;7.07;;;1.63;;
50779;SDS011;36748;37.428;-121.972;2023-04-15T04:40:21;4.20;;;1.48;;
50779;SDS011;36748;37.428;-121.972;2023-04-15T04:42:47;5.05;;;1.77;;
50779;SDS011;36748;37.428;-121.972;2023-04-15T04:45:14;5.50;;;1.35;;
50779;SDS011;36748;37.428;-121.972;2023-04-15T04:47:40;4.60;;;1.45;;
50779;SDS011;36748;37.428;-121.972;2023-04-15T04:50:06;5.47;;;1.80;;
50779;SDS011;36748;37.428;-121.972;2023-04-15T04:52:33;8.60;;;1.50;;
50779;SDS011;36748;37.428;-121.972;2023-04-15T04:54:59;5.32;;;1.63;;
50779;SDS011;36748;37.428;-121.972;2023-04-15T04:57:25;4.72;;;1.30;;
50779;SDS011;36748;37.428;-121.972;2023-04-15T04:59:52;4.40;;;1.15;;
50779;SDS011;36748;37.428;-121.972;2023-04-15T05:02:18;3.83;;;1.90;;
50779;SDS011;36748;37.428;-121.972;2023-04-15T05:04:44;3.13;;;1.17;;
50779;SDS011;36748;37.428;-121.972;2023-04-15T05:07:10;6.57;;;1.60;;
50779;SDS011;36748;37.428;-121.972;2023-04-15T05:09:37;2.95;;;1.50;;
50779;SDS011;36748;37.428;-121.972;2023-04-15T05:12:03;2.92;;;1.30;;
50779;SDS011;36748;37.428;-121.972;2023-04-15T05:14:30;3.35;;;1.50;;
50779;SDS011;36748;37.428;-121.972;2023-04-15T05:16:56;5.90;;;1.42;;
50779;SDS011;36748;37.428;-121.972;2023-04-15T05:19:22;4.05;;;1.67;;
50779;SDS011;36748;37.428;-121.972;2023-04-15T05:21:49;2.40;;;1.08;;
50779;SDS011;36748;37.428;-121.972;2023-04-15T05:24:15;3.28;;;0.98;;
50779;SDS011;36748;37.428;-121.972;2023-04-15T05:26:41;3.30;;;1.40;;
50779;SDS011;36748;37.428;-121.972;2023-04-15T05:29:07;2.83;;;1.33;;
50779;SDS011;36748;37.428;-121.972;2023-04-15T05:31:33;3.17;;;1.58;;
50779;SDS011;36748;37.428;-121.972;2023-04-15T05:34:00;4.30;;;1.48;;
50779;SDS011;36748;37.428;-121.972;2023-04-15T05:36:26;2.90;;;1.08;;
50779;SDS011;36748;37.428;-121.972;2023-04-15T05:38:53;2.53;;;1.30;;
50779;SDS011;36748;37.428;-121.972;2023-04-15T05:41:19;1.92;;;1.13;;
50779;SDS011;36748;37.428;-121.972;2023-04-15T05:43:45;2.50;;;1.10;;
50779;SDS011;36748;37.428;-121.972;2023-04-15T05:46:12;2.95;;;1.10;;
50779;SDS011;36748;37.428;-121.972;2023-04-15T05:48:38;2.75;;;1.67;;
50779;SDS011;36748;37.428;-121.972;2023-04-15T05:51:04;3.15;;;1.35;;
50779;SDS011;36748;37.428;-121.972;2023-04-15T05:53:30;5.20;;;1.20;;
50779;SDS011;36748;37.428;-121.972;2023-04-15T05:55:57;2.60;;;1.10;;
50779;SDS011;36748;37.428;-121.972;2023-04-15T05:58:23;2.30;;;1.10;;
50779;SDS011;36748;37.428;-121.972;2023-04-15T06:00:49;2.97;;;1.33;;
50779;SDS011;36748;37.428;-121.972;2023-04-15T06:03:16;2.47;;;1.23;;
50779;SDS011;36748;37.428;-121.972;2023-04-15T06:05:42;2.33;;;1.10;;
50779;SDS011;36748;37.428;-121.972;2023-04-15T06:08:09;5.15;;;1.40;;
50779;SDS011;36748;37.428;-121.972;2023-04-15T06:10:35;4.10;;;1.05;;
50779;SDS011;36748;37.428;-121.972;2023-04-15T06:13:02;4.47;;;1.20;;
50779;SDS011;36748;37.428;-121.972;2023-04-15T06:15:28;3.05;;;1.40;;
50779;SDS011;36748;37.428;-121.972;2023-04-15T06:17:56;2.08;;;1.30;;
50779;SDS011;36748;37.428;-121.972;2023-04-15T06:20:22;1.70;;;1.05;;
50779;SDS011;36748;37.428;-121.972;2023-04-15T06:22:48;2.17;;;1.00;;
50779;SDS011;36748;37.428;-121.972;2023-04-15T06:25:15;3.28;;;1.25;;
50779;SDS011;36748;37.428;-121.972;2023-04-15T06:27:41;2.88;;;1.10;;
50779;SDS011;36748;37.428;-121.972;2023-04-15T06:30:08;1.73;;;0.80;;
50779;SDS011;36748;37.428;-121.972;2023-04-15T06:32:34;3.00;;;1.20;;
50779;SDS011;36748;37.428;-121.972;2023-04-15T06:35:01;2.10;;;1.08;;
50779;SDS011;36748;37.428;-121.972;2023-04-15T06:37:27;2.90;;;1.25;;
50779;SDS011;36748;37.428;-121.972;2023-04-15T06:39:53;2.13;;;1.20;;
50779;SDS011;36748;37.428;-121.972;2023-04-15T06:42:19;2.30;;;1.10;;
50779;SDS011;36748;37.428;-121.972;2023-04-15T06:44:45;1.75;;;1.05;;
50779;SDS011;36748;37.428;-121.972;2023-04-15T06:47:12;2.45;;;1.10;;
50779;SDS011;36748;37.428;-121.972;2023-04-15T06:49:39;2.38;;;1.33;;
50779;SDS011;36748;37.428;-121.972;2023-04-15T06:52:05;3.05;;;1.20;;
50779;SDS011;36748;37.428;-121.972;2023-04-15T06:54:32;3.88;;;1.17;;
50779;SDS011;36748;37.428;-121.972;2023-04-15T06:56:58;1.88;;;1.00;;
50779;SDS011;36748;37.428;-121.972;2023-04-15T06:59:25;3.08;;;1.10;;
50779;SDS011;36748;37.428;-121.972;2023-04-15T07:01:51;3.10;;;1.30;;
50779;SDS011;36748;37.428;-121.972;2023-04-15T07:04:17;1.60;;;0.90;;
50779;SDS011;36748;37.428;-121.972;2023-04-15T07:06:44;3.92;;;1.08;;
50779;SDS011;36748;37.428;-121.972;2023-04-15T07:09:11;2.05;;;1.00;;
50779;SDS011;36748;37.428;-121.972;2023-04-15T07:11:37;3.05;;;1.10;;
50779;SDS011;36748;37.428;-121.972;2023-04-15T07:14:04;2.90;;;1.13;;
50779;SDS011;36748;37.428;-121.972;2023-04-15T07:16:30;3.17;;;0.82;;
50779;SDS011;36748;37.428;-121.972;2023-04-15T07:18:57;2.03;;;1.05;;
50779;SDS011;36748;37.428;-121.972;2023-04-15T07:21:23;2.13;;;0.93;;
50779;SDS011;36748;37.428;-121.972;2023-04-15T07:23:50;3.75;;;1.08;;
50779;SDS011;36748;37.428;-121.972;2023-04-15T07:26:16;3.65;;;1.38;;
50779;SDS011;36748;37.428;-121.972;2023-04-15T07:28:42;1.65;;;0.80;;
50779;SDS011;36748;37.428;-121.972;2023-04-15T07:31:10;2.28;;;0.82;;
50779;SDS011;36748;37.428;-121.972;2023-04-15T07:33:36;1.80;;;0.98;;
50779;SDS011;36748;37.428;-121.972;2023-04-15T07:36:03;3.00;;;1.10;;
50779;SDS011;36748;37.428;-121.972;2023-04-15T07:38:29;1.70;;;0.73;;
50779;SDS011;36748;37.428;-121.972;2023-04-15T07:40:55;2.42;;;0.70;;
50779;SDS011;36748;37.428;-121.972;2023-04-15T07:43:22;2.33;;;1.00;;
50779;SDS011;36748;37.428;-121.972;2023-04-15T07:45:48;1.70;;;0.95;;
50779;SDS011;36748;37.428;-121.972;2023-04-15T07:48:14;2.65;;;0.80;;
50779;SDS011;36748;37.428;-121.972;2023-04-15T07:50:41;1.38;;;0.82;;
50779;SDS011;36748;37.428;-121.972;2023-04-15T07:53:07;1.63;;;0.85;;
50779;SDS011;36748;37.428;-121.972;2023-04-15T07:55:33;1.75;;;0.80;;
50779;SDS011;36748;37.428;-121.972;2023-04-15T07:57:59;1.50;;;0.73;;
50779;SDS011;36748;37.428;-121.972;2023-04-15T08:00:26;1.83;;;0.90;;
50779;SDS011;36748;37.428;-121.972;2023-04-15T08:02:52;3.35;;;0.70;;
50779;SDS011;36748;37.428;-121.972;2023-04-15T08:05:21;1.55;;;0.82;;
50779;SDS011;36748;37.428;-121.972;2023-04-15T08:07:48;2.72;;;1.00;;
50779;SDS011;36748;37.428;-121.972;2023-04-15T08:10:14;1.17;;;0.85;;
50779;SDS011;36748;37.428;-121.972;2023-04-15T08:12:41;2.05;;;0.85;;
50779;SDS011;36748;37.428;-121.972;2023-04-15T08:15:07;1.90;;;0.98;;
50779;SDS011;36748;37.428;-121.972;2023-04-15T08:17:33;1.27;;;0.80;;
50779;SDS011;36748;37.428;-121.972;2023-04-15T08:20:00;1.55;;;0.90;;
50779;SDS011;36748;37.428;-121.972;2023-04-15T08:22:28;2.33;;;0.73;;
50779;SDS011;36748;37.428;-121.972;2023-04-15T08:24:55;1.08;;;0.70;;
50779;SDS011;36748;37.428;-121.972;2023-04-15T08:27:22;1.13;;;0.75;;
50779;SDS011;36748;37.428;-121.972;2023-04-15T08:29:48;1.73;;;0.80;;
50779;SDS011;36748;37.428;-121.972;2023-04-15T08:32:14;1.73;;;1.00;;
50779;SDS011;36748;37.428;-121.972;2023-04-15T08:34:41;1.33;;;0.68;;
50779;SDS011;36748;37.428;-121.972;2023-04-15T08:37:07;2.45;;;1.05;;
50779;SDS011;36748;37.428;-121.972;2023-04-15T08:39:33;2.50;;;0.90;;
50779;SDS011;36748;37.428;-121.972;2023-04-15T08:42:00;4.00;;;1.00;;
50779;SDS011;36748;37.428;-121.972;2023-04-15T08:44:28;2.50;;;0.90;;
50779;SDS011;36748;37.428;-121.972;2023-04-15T08:47:00;1.50;;;0.95;;
50779;SDS011;36748;37.428;-121.972;2023-04-15T08:49:31;1.92;;;0.80;;
50779;SDS011;36748;37.428;-121.972;2023-04-15T08:51:58;1.30;;;0.80;;
50779;SDS011;36748;37.428;-121.972;2023-04-15T08:54:24;2.70;;;0.60;;
50779;SDS011;36748;37.428;-121.972;2023-04-15T08:56:52;3.65;;;0.80;;
50779;SDS011;36748;37.428;-121.972;2023-04-15T08:59:19;2.53;;;0.80;;
50779;SDS011;36748;37.428;-121.972;2023-04-15T09:01:47;1.45;;;1.00;;
50779;SDS011;36748;37.428;-121.972;2023-04-15T09:04:15;2.65;;;1.27;;
50779;SDS011;36748;37.428;-121.972;2023-04-15T09:06:42;0.82;;;0.80;;
50779;SDS011;36748;37.428;-121.972;2023-04-15T09:09:08;1.98;;;0.70;;
50779;SDS011;36748;37.428;-121.972;2023-04-15T09:11:34;2.22;;;0.80;;
50779;SDS011;36748;37.428;-121.972;2023-04-15T09:14:01;1.38;;;0.88;;
50779;SDS011;36748;37.428;-121.972;2023-04-15T09:16:27;1.85;;;0.70;;
50779;SDS011;36748;37.428;-121.972;2023-04-15T09:18:54;2.53;;;0.70;;
50779;SDS011;36748;37.428;-121.972;2023-04-15T09:21:20;1.73;;;0.90;;
50779;SDS011;36748;37.428;-121.972;2023-04-15T09:23:57;1.70;;;0.80;;
50779;SDS011;36748;37.428;-121.972;2023-04-15T09:29:04;1.20;;;0.80;;
50779;SDS011;36748;37.428;-121.972;2023-04-15T09:31:31;2.08;;;0.85;;
50779;SDS011;36748;37.428;-121.972;2023-04-15T09:33:58;2.25;;;1.00;;
50779;SDS011;36748;37.428;-121.972;2023-04-15T09:36:24;1.55;;;0.95;;
50779;SDS011;36748;37.428;-121.972;2023-04-15T09:38:54;0.90;;;0.55;;
50779;SDS011;36748;37.428;-121.972;2023-04-15T09:41:21;1.15;;;0.77;;
50779;SDS011;36748;37.428;-121.972;2023-04-15T09:44:22;1.02;;;0.68;;
50779;SDS011;36748;37.428;-121.972;2023-04-15T09:46:49;2.22;;;0.85;;
50779;SDS011;36748;37.428;-121.972;2023-04-15T09:49:15;1.27;;;0.73;;
50779;SDS011;36748;37.428;-121.972;2023-04-15T09:51:42;1.25;;;0.50;;
50779;SDS011;36748;37.428;-121.972;2023-04-15T09:54:08;1.35;;;0.90;;
50779;SDS011;36748;37.428;-121.972;2023-04-15T09:56:35;2.83;;;0.80;;
50779;SDS011;36748;37.428;-121.972;2023-04-15T09:59:06;1.50;;;0.70;;
50779;SDS011;36748;37.428;-121.972;2023-04-15T10:01:34;1.23;;;0.70;;
50779;SDS011;36748;37.428;-121.972;2023-04-15T10:04:03;0.95;;;0.65;;
50779;SDS011;36748;37.428;-121.972;2023-04-15T10:06:30;1.08;;;0.65;;
50779;SDS011;36748;37.428;-121.972;2023-04-15T10:08:57;0.95;;;0.55;;
50779;SDS011;36748;37.428;-121.972;2023-04-15T10:11:25;1.27;;;0.80;;
50779;SDS011;36748;37.428;-121.972;2023-04-15T10:13:53;1.00;;;0.68;;
50779;SDS011;36748;37.428;-121.972;2023-04-15T10:16:22;2.50;;;0.73;;
50779;SDS011;36748;37.428;-121.972;2023-04-15T10:18:55;2.28;;;0.70;;
50779;SDS011;36748;37.428;-121.972;2023-04-15T10:21:23;2.03;;;0.85;;
50779;SDS011;36748;37.428;-121.972;2023-04-15T10:23:49;1.42;;;0.80;;
50779;SDS011;36748;37.428;-121.972;2023-04-15T10:26:16;0.98;;;0.50;;
50779;SDS011;36748;37.428;-121.972;2023-04-15T10:28:43;0.80;;;0.55;;
50779;SDS011;36748;37.428;-121.972;2023-04-15T10:31:11;0.90;;;0.60;;
50779;SDS011;36748;37.428;-121.972;2023-04-15T10:33:58;2.20;;;1.08;;
50779;SDS011;36748;37.428;-121.972;2023-04-15T10:36:29;1.80;;;0.70;;
50779;SDS011;36748;37.428;-121.972;2023-04-15T10:38:55;0.98;;;0.52;;
50779;SDS011;36748;37.428;-121.972;2023-04-15T10:41:23;1.73;;;0.85;;
50779;SDS011;36748;37.428;-121.972;2023-04-15T10:49:11;2.58;;;0.80;;
50779;SDS011;36748;37.428;-121.972;2023-04-15T10:51:45;1.05;;;0.55;;
50779;SDS011;36748;37.428;-121.972;2023-04-15T10:54:15;3.72;;;0.85;;
50779;SDS011;36748;37.428;-121.972;2023-04-15T10:59:31;1.15;;;0.52;;
50779;SDS011;36748;37.428;-121.972;2023-04-15T11:02:04;1.05;;;0.60;;
50779;SDS011;36748;37.428;-121.972;2023-04-15T11:10:49;1.08;;;0.57;;
50779;SDS011;36748;37.428;-121.972;2023-04-15T11:12:57;0.63;;;0.47;;
50779;SDS011;36748;37.428;-121.972;2023-04-15T11:18:11;1.45;;;0.70;;
50779;SDS011;36748;37.428;-121.972;2023-04-15T11:20:40;2.90;;;0.70;;
50779;SDS011;36748;37.428;-121.972;2023-04-15T11:23:09;1.73;;;0.50;;
50779;SDS011;36748;37.428;-121.972;2023-04-15T11:25:36;0.80;;;0.40;;
50779;SDS011;36748;37.428;-121.972;2023-04-15T11:28:02;1.23;;;0.68;;
50779;SDS011;36748;37.428;-121.972;2023-04-15T11:30:31;1.63;;;0.65;;
50779;SDS011;36748;37.428;-121.972;2023-04-15T11:33:05;3.97;;;0.73;;
50779;SDS011;36748;37.428;-121.972;2023-04-15T11:35:33;1.60;;;0.43;;
50779;SDS011;36748;37.428;-121.972;2023-04-15T11:38:08;2.45;;;0.70;;
50779;SDS011;36748;37.428;-121.972;2023-04-15T11:40:39;1.58;;;0.40;;
50779;SDS011;36748;37.428;-121.972;2023-04-15T11:43:09;0.98;;;0.60;;
50779;SDS011;36748;37.428;-121.972;2023-04-15T11:45:47;1.77;;;0.70;;
50779;SDS011;36748;37.428;-121.972;2023-04-15T11:48:18;1.75;;;0.68;;
50779;SDS011;36748;37.428;-121.972;2023-04-15T11:50:45;1.95;;;0.82;;
50779;SDS011;36748;37.428;-121.972;2023-04-15T11:53:12;0.98;;;0.60;;
50779;SDS011;36748;37.428;-121.972;2023-04-15T11:55:46;1.42;;;0.50;;
50779;SDS011;36748;37.428;-121.972;2023-04-15T11:58:17;1.58;;;0.70;;
50779;SDS011;36748;37.428;-121.972;2023-04-15T12:03:16;1.25;;;0.60;;
50779;SDS011;36748;37.428;-121.972;2023-04-15T12:11:37;2.45;;;0.50;;
50779;SDS011;36748;37.428;-121.972;2023-04-15T12:14:28;2.13;;;0.52;;
50779;SDS011;36748;37.428;-121.972;2023-04-15T12:17:00;0.90;;;0.50;;
50779;SDS011;36748;37.428;-121.972;2023-04-15T12:19:28;1.05;;;0.60;;
50779;SDS011;36748;37.428;-121.972;2023-04-15T12:22:02;1.20;;;0.50;;
50779;SDS011;36748;37.428;-121.972;2023-04-15T12:24:36;1.48;;;0.80;;
50779;SDS011;36748;37.428;-121.972;2023-04-15T12:27:07;1.38;;;0.43;;
50779;SDS011;36748;37.428;-121.972;2023-04-15T12:29:35;1.35;;;0.65;;
50779;SDS011;36748;37.428;-121.972;2023-04-15T12:32:06;1.10;;;0.60;;
50779;SDS011;36748;37.428;-121.972;2023-04-15T12:34:37;0.77;;;0.50;;
50779;SDS011;36748;37.428;-121.972;2023-04-15T12:37:23;2.30;;;0.60;;
50779;SDS011;36748;37.428;-121.972;2023-04-15T12:39:50;1.77;;;0.40;;
50779;SDS011;36748;37.428;-121.972;2023-04-15T12:42:18;1.92;;;0.60;;
50779;SDS011;36748;37.428;-121.972;2023-04-15T12:44:44;2.85;;;0.57;;
50779;SDS011;36748;37.428;-121.972;2023-04-15T12:47:11;2.38;;;0.60;;
50779;SDS011;36748;37.428;-121.972;2023-04-15T12:49:38;0.95;;;0.40;;
50779;SDS011;36748;37.428;-121.972;2023-04-15T12:52:05;0.50;;;0.40;;
50779;SDS011;36748;37.428;-121.972;2023-04-15T12:54:31;1.67;;;0.50;;
50779;SDS011;36748;37.428;-121.972;2023-04-15T12:56:59;0.95;;;0.43;;
50779;SDS011;36748;37.428;-121.972;2023-04-15T12:59:25;0.75;;;0.52;;
50779;SDS011;36748;37.428;-121.972;2023-04-15T13:01:52;0.70;;;0.30;;
50779;SDS011;36748;37.428;-121.972;2023-04-15T13:04:19;0.70;;;0.35;;
50779;SDS011;36748;37.428;-121.972;2023-04-15T13:06:46;0.73;;;0.40;;
50779;SDS011;36748;37.428;-121.972;2023-04-15T13:09:12;0.60;;;0.30;;
50779;SDS011;36748;37.428;-121.972;2023-04-15T13:11:38;1.08;;;0.43;;
50779;SDS011;36748;37.428;-121.972;2023-04-15T13:14:05;3.90;;;0.60;;
50779;SDS011;36748;37.428;-121.972;2023-04-15T13:16:33;0.52;;;0.32;;
50779;SDS011;36748;37.428;-121.972;2023-04-15T13:19:00;0.73;;;0.40;;
50779;SDS011;36748;37.428;-121.972;2023-04-15T13:21:27;1.05;;;0.35;;
50779;SDS011;36748;37.428;-121.972;2023-04-15T13:23:53;0.80;;;0.30;;
50779;SDS011;36748;37.428;-121.972;2023-04-15T13:26:20;0.70;;;0.25;;
50779;SDS011;36748;37.428;-121.972;2023-04-15T13:28:46;0.40;;;0.30;;
50779;SDS011;36748;37.428;-121.972;2023-04-15T13:31:12;1.17;;;0.47;;
50779;SDS011;36748;37.428;-121.972;2023-04-15T13:33:39;6.45;;;1.08;;
50779;SDS011;36748;37.428;-121.972;2023-04-15T13:36:05;4.38;;;1.10;;
50779;SDS011;36748;37.428;-121.972;2023-04-15T13:38:32;5.82;;;0.82;;
50779;SDS011;36748;37.428;-121.972;2023-04-15T13:40:58;2.95;;;0.60;;
50779;SDS011;36748;37.428;-121.972;2023-04-15T13:43:25;4.70;;;0.77;;
50779;SDS011;36748;37.428;-121.972;2023-04-15T13:45:51;1.52;;;0.60;;
50779;SDS011;36748;37.428;-121.972;2023-04-15T13:48:17;1.48;;;0.75;;
50779;SDS011;36748;37.428;-121.972;2023-04-15T13:50:43;3.30;;;0.70;;
50779;SDS011;36748;37.428;-121.972;2023-04-15T13:53:10;4.03;;;0.95;;
50779;SDS011;36748;37.428;-121.972;2023-04-15T13:55:37;6.22;;;1.13;;
50779;SDS011;36748;37.428;-121.972;2023-04-15T13:58:07;3.20;;;0.90;;
50779;SDS011;36748;37.428;-121.972;2023-04-15T14:00:33;2.33;;;0.80;;
50779;SDS011;36748;37.428;-121.972;2023-04-15T14:03:00;1.77;;;0.80;;
50779;SDS011;36748;37.428;-121.972;2023-04-15T14:05:26;4.35;;;0.70;;
50779;SDS011;36748;37.428;-121.972;2023-04-15T14:07:52;2.20;;;1.00;;
50779;SDS011;36748;37.428;-121.972;2023-04-15T14:10:19;2.25;;;0.70;;
50779;SDS011;36748;37.428;-121.972;2023-04-15T14:12:45;2.13;;;0.80;;
50779;SDS011;36748;37.428;-121.972;2023-04-15T14:15:11;2.47;;;0.70;;
50779;SDS011;36748;37.428;-121.972;2023-04-15T14:17:38;1.73;;;0.70;;
50779;SDS011;36748;37.428;-121.972;2023-04-15T14:20:06;0.88;;;0.47;;
50779;SDS011;36748;37.428;-121.972;2023-04-15T14:22:33;2.22;;;0.75;;
50779;SDS011;36748;37.428;-121.972;2023-04-15T14:25:00;1.50;;;0.60;;
50779;SDS011;36748;37.428;-121.972;2023-04-15T14:27:26;3.25;;;0.70;;
50779;SDS011;36748;37.428;-121.972;2023-04-15T14:29:53;1.98;;;0.82;;
50779;SDS011;36748;37.428;-121.972;2023-04-15T14:32:19;3.03;;;0.82;;
50779;SDS011;36748;37.428;-121.972;2023-04-15T14:34:46;2.40;;;0.63;;
50779;SDS011;36748;37.428;-121.972;2023-04-15T16:31:04;0.40;;;0.30;;